sensor_id;sensor_type;location;lat;lon;timestamp;P1;durP1;ratioP1;P2;durP2;ratioP2
76608;SDS011;65928;53.936;27.540;2023-02-28T00:01:19;5.78;;;3.63;;
76608;SDS011;65928;53.936;27.540;2023-02-28T00:03:44;9.27;;;4.57;;
76608;SDS011;65928;53.936;27.540;2023-02-28T00:06:10;6.65;;;4.05;;
76608;SDS011;65928;53.936;27.540;2023-02-28T00:08:36;6.70;;;3.63;;
76608;SDS011;65928;53.936;27.540;2023-02-28T00:11:03;8.00;;;4.32;;
76608;SDS011;65928;53.936;27.540;2023-02-28T00:13:30;6.63;;;3.67;;
76608;SDS011;65928;53.936;27.540;2023-02-28T00:16:03;5.82;;;3.65;;
76608;SDS011;65928;53.936;27.540;2023-02-28T00:18:30;6.50;;;3.80;;
76608;SDS011;65928;53.936;27.540;2023-02-28T00:20:56;7.88;;;4.82;;
76608;SDS011;65928;53.936;27.540;2023-02-28T00:23:22;6.97;;;4.15;;
76608;SDS011;65928;53.936;27.540;2023-02-28T00:25:48;7.20;;;4.07;;
76608;SDS011;65928;53.936;27.540;2023-02-28T00:28:13;7.60;;;4.40;;
76608;SDS011;65928;53.936;27.540;2023-02-28T00:30:39;6.88;;;3.60;;
76608;SDS011;65928;53.936;27.540;2023-02-28T00:33:05;7.07;;;4.10;;
76608;SDS011;65928;53.936;27.540;2023-02-28T00:35:30;8.10;;;5.10;;
76608;SDS011;65928;53.936;27.540;2023-02-28T00:37:56;6.55;;;4.00;;
76608;SDS011;65928;53.936;27.540;2023-02-28T00:40:21;7.45;;;4.53;;
76608;SDS011;65928;53.936;27.540;2023-02-28T00:42:46;5.80;;;4.13;;
76608;SDS011;65928;53.936;27.540;2023-02-28T00:45:12;8.45;;;4.35;;
76608;SDS011;65928;53.936;27.540;2023-02-28T00:47:37;8.52;;;5.32;;
76608;SDS011;65928;53.936;27.540;2023-02-28T00:50:03;9.75;;;5.85;;
76608;SDS011;65928;53.936;27.540;2023-02-28T00:52:30;9.05;;;4.90;;
76608;SDS011;65928;53.936;27.540;2023-02-28T00:54:55;9.20;;;4.85;;
76608;SDS011;65928;53.936;27.540;2023-02-28T00:57:21;8.15;;;4.95;;
76608;SDS011;65928;53.936;27.540;2023-02-28T00:59:47;10.20;;;5.80;;
76608;SDS011;65928;53.936;27.540;2023-02-28T01:02:12;10.73;;;5.65;;
76608;SDS011;65928;53.936;27.540;2023-02-28T01:04:38;8.77;;;5.55;;
76608;SDS011;65928;53.936;27.540;2023-02-28T01:07:03;10.32;;;5.53;;
76608;SDS011;65928;53.936;27.540;2023-02-28T01:09:28;10.30;;;5.22;;
76608;SDS011;65928;53.936;27.540;2023-02-28T01:11:54;10.68;;;5.65;;
76608;SDS011;65928;53.936;27.540;2023-02-28T01:14:20;10.27;;;6.32;;
76608;SDS011;65928;53.936;27.540;2023-02-28T01:16:45;11.57;;;6.40;;
76608;SDS011;65928;53.936;27.540;2023-02-28T01:19:11;9.73;;;5.70;;
76608;SDS011;65928;53.936;27.540;2023-02-28T01:21:36;11.73;;;6.70;;
76608;SDS011;65928;53.936;27.540;2023-02-28T01:24:02;11.63;;;6.20;;
76608;SDS011;65928;53.936;27.540;2023-02-28T01:26:29;10.32;;;5.72;;
76608;SDS011;65928;53.936;27.540;2023-02-28T01:28:55;9.57;;;5.85;;
76608;SDS011;65928;53.936;27.540;2023-02-28T01:31:21;9.75;;;6.05;;
76608;SDS011;65928;53.936;27.540;2023-02-28T01:33:47;14.88;;;7.70;;
76608;SDS011;65928;53.936;27.540;2023-02-28T01:36:14;10.35;;;6.03;;
76608;SDS011;65928;53.936;27.540;2023-02-28T01:38:44;11.35;;;6.45;;
76608;SDS011;65928;53.936;27.540;2023-02-28T01:41:17;11.05;;;6.28;;
76608;SDS011;65928;53.936;27.540;2023-02-28T01:46:13;9.95;;;5.88;;
76608;SDS011;65928;53.936;27.540;2023-02-28T01:48:40;8.98;;;5.43;;
76608;SDS011;65928;53.936;27.540;2023-02-28T01:51:13;12.00;;;5.88;;
76608;SDS011;65928;53.936;27.540;2023-02-28T01:53:44;11.25;;;6.22;;
76608;SDS011;65928;53.936;27.540;2023-02-28T01:56:13;11.38;;;6.32;;
76608;SDS011;65928;53.936;27.540;2023-02-28T02:01:14;12.18;;;6.53;;
76608;SDS011;65928;53.936;27.540;2023-02-28T02:03:49;11.50;;;6.53;;
76608;SDS011;65928;53.936;27.540;2023-02-28T02:06:23;14.00;;;7.22;;
76608;SDS011;65928;53.936;27.540;2023-02-28T02:08:52;14.27;;;6.72;;
76608;SDS011;65928;53.936;27.540;2023-02-28T02:11:18;12.05;;;7.00;;
76608;SDS011;65928;53.936;27.540;2023-02-28T02:22:03;12.63;;;6.60;;
76608;SDS011;65928;53.936;27.540;2023-02-28T02:30:33;15.05;;;6.65;;
76608;SDS011;65928;53.936;27.540;2023-02-28T02:33:22;13.25;;;7.00;;
76608;SDS011;65928;53.936;27.540;2023-02-28T02:43:41;10.00;;;6.03;;
76608;SDS011;65928;53.936;27.540;2023-02-28T02:46:25;12.15;;;6.55;;
76608;SDS011;65928;53.936;27.540;2023-02-28T02:48:58;10.05;;;6.22;;
76608;SDS011;65928;53.936;27.540;2023-02-28T02:51:27;14.73;;;7.55;;
76608;SDS011;65928;53.936;27.540;2023-02-28T02:54:03;11.98;;;6.43;;
76608;SDS011;65928;53.936;27.540;2023-02-28T02:56:33;12.10;;;6.32;;
76608;SDS011;65928;53.936;27.540;2023-02-28T02:59:02;12.40;;;7.95;;
76608;SDS011;65928;53.936;27.540;2023-02-28T03:01:31;12.73;;;5.97;;
76608;SDS011;65928;53.936;27.540;2023-02-28T03:04:00;13.88;;;7.95;;
76608;SDS011;65928;53.936;27.540;2023-02-28T03:06:28;13.50;;;8.40;;
76608;SDS011;65928;53.936;27.540;2023-02-28T03:08:54;12.93;;;7.43;;
76608;SDS011;65928;53.936;27.540;2023-02-28T03:11:19;11.85;;;7.28;;
76608;SDS011;65928;53.936;27.540;2023-02-28T03:16:36;13.80;;;7.25;;
76608;SDS011;65928;53.936;27.540;2023-02-28T03:19:37;14.13;;;6.22;;
76608;SDS011;65928;53.936;27.540;2023-02-28T03:30:38;13.55;;;7.03;;
76608;SDS011;65928;53.936;27.540;2023-02-28T03:33:14;13.35;;;6.57;;
76608;SDS011;65928;53.936;27.540;2023-02-28T03:35:53;12.48;;;7.38;;
76608;SDS011;65928;53.936;27.540;2023-02-28T03:38:26;15.10;;;8.57;;
76608;SDS011;65928;53.936;27.540;2023-02-28T03:41:08;13.93;;;7.93;;
76608;SDS011;65928;53.936;27.540;2023-02-28T03:43:40;12.20;;;7.35;;
76608;SDS011;65928;53.936;27.540;2023-02-28T03:46:10;15.63;;;8.20;;
76608;SDS011;65928;53.936;27.540;2023-02-28T03:48:42;13.77;;;7.90;;
76608;SDS011;65928;53.936;27.540;2023-02-28T03:51:12;14.40;;;8.05;;
76608;SDS011;65928;53.936;27.540;2023-02-28T03:53:43;15.43;;;8.85;;
76608;SDS011;65928;53.936;27.540;2023-02-28T03:58:49;14.35;;;8.07;;
76608;SDS011;65928;53.936;27.540;2023-02-28T04:03:55;16.05;;;8.48;;
76608;SDS011;65928;53.936;27.540;2023-02-28T04:06:21;14.43;;;8.27;;
76608;SDS011;65928;53.936;27.540;2023-02-28T04:08:47;19.55;;;9.45;;
76608;SDS011;65928;53.936;27.540;2023-02-28T04:11:18;16.52;;;9.85;;
76608;SDS011;65928;53.936;27.540;2023-02-28T04:14:21;14.88;;;8.38;;
76608;SDS011;65928;53.936;27.540;2023-02-28T04:16:47;15.48;;;8.15;;
76608;SDS011;65928;53.936;27.540;2023-02-28T04:19:13;15.15;;;8.18;;
76608;SDS011;65928;53.936;27.540;2023-02-28T04:24:09;16.85;;;8.82;;
76608;SDS011;65928;53.936;27.540;2023-02-28T04:26:39;16.55;;;7.72;;
76608;SDS011;65928;53.936;27.540;2023-02-28T04:29:08;15.77;;;8.60;;
76608;SDS011;65928;53.936;27.540;2023-02-28T04:31:35;13.13;;;7.55;;
76608;SDS011;65928;53.936;27.540;2023-02-28T04:34:00;12.73;;;8.05;;
76608;SDS011;65928;53.936;27.540;2023-02-28T04:36:26;16.95;;;7.68;;
76608;SDS011;65928;53.936;27.540;2023-02-28T04:38:52;15.45;;;8.98;;
76608;SDS011;65928;53.936;27.540;2023-02-28T04:41:18;13.70;;;8.23;;
76608;SDS011;65928;53.936;27.540;2023-02-28T04:43:44;14.45;;;7.65;;
76608;SDS011;65928;53.936;27.540;2023-02-28T04:46:09;18.10;;;8.32;;
76608;SDS011;65928;53.936;27.540;2023-02-28T04:48:36;16.50;;;8.77;;
76608;SDS011;65928;53.936;27.540;2023-02-28T04:51:09;12.57;;;7.10;;
76608;SDS011;65928;53.936;27.540;2023-02-28T04:53:37;13.32;;;7.80;;
76608;SDS011;65928;53.936;27.540;2023-02-28T04:56:04;14.23;;;7.88;;
76608;SDS011;65928;53.936;27.540;2023-02-28T04:58:31;16.20;;;8.32;;
76608;SDS011;65928;53.936;27.540;2023-02-28T05:01:04;12.40;;;7.15;;
76608;SDS011;65928;53.936;27.540;2023-02-28T05:03:41;14.68;;;7.95;;
76608;SDS011;65928;53.936;27.540;2023-02-28T05:06:08;14.57;;;7.50;;
76608;SDS011;65928;53.936;27.540;2023-02-28T05:08:34;14.23;;;7.25;;
76608;SDS011;65928;53.936;27.540;2023-02-28T05:11:00;13.88;;;7.05;;
76608;SDS011;65928;53.936;27.540;2023-02-28T05:13:26;16.27;;;7.75;;
76608;SDS011;65928;53.936;27.540;2023-02-28T05:15:52;12.90;;;7.50;;
76608;SDS011;65928;53.936;27.540;2023-02-28T05:18:18;11.45;;;6.47;;
76608;SDS011;65928;53.936;27.540;2023-02-28T05:20:43;11.63;;;6.97;;
76608;SDS011;65928;53.936;27.540;2023-02-28T05:23:11;14.77;;;7.32;;
76608;SDS011;65928;53.936;27.540;2023-02-28T05:25:37;15.98;;;9.75;;
76608;SDS011;65928;53.936;27.540;2023-02-28T05:28:03;42.60;;;20.02;;
76608;SDS011;65928;53.936;27.540;2023-02-28T05:30:29;28.98;;;15.70;;
76608;SDS011;65928;53.936;27.540;2023-02-28T05:32:56;13.38;;;7.55;;
76608;SDS011;65928;53.936;27.540;2023-02-28T05:35:22;12.43;;;6.70;;
76608;SDS011;65928;53.936;27.540;2023-02-28T05:37:48;17.13;;;9.75;;
76608;SDS011;65928;53.936;27.540;2023-02-28T05:40:13;13.75;;;8.02;;
76608;SDS011;65928;53.936;27.540;2023-02-28T05:42:40;15.18;;;7.80;;
76608;SDS011;65928;53.936;27.540;2023-02-28T05:45:06;15.52;;;9.02;;
76608;SDS011;65928;53.936;27.540;2023-02-28T05:47:33;16.70;;;8.48;;
76608;SDS011;65928;53.936;27.540;2023-02-28T05:49:59;15.10;;;8.95;;
76608;SDS011;65928;53.936;27.540;2023-02-28T05:52:25;16.55;;;8.30;;
76608;SDS011;65928;53.936;27.540;2023-02-28T05:54:50;14.68;;;7.80;;
76608;SDS011;65928;53.936;27.540;2023-02-28T05:57:16;14.93;;;8.20;;
76608;SDS011;65928;53.936;27.540;2023-02-28T05:59:42;16.30;;;7.93;;
76608;SDS011;65928;53.936;27.540;2023-02-28T06:02:14;14.02;;;8.02;;
76608;SDS011;65928;53.936;27.540;2023-02-28T06:04:41;13.45;;;7.97;;
76608;SDS011;65928;53.936;27.540;2023-02-28T06:07:07;14.73;;;9.00;;
76608;SDS011;65928;53.936;27.540;2023-02-28T06:09:33;13.57;;;7.53;;
76608;SDS011;65928;53.936;27.540;2023-02-28T06:11:59;18.23;;;9.27;;
76608;SDS011;65928;53.936;27.540;2023-02-28T06:14:25;14.82;;;8.57;;
76608;SDS011;65928;53.936;27.540;2023-02-28T06:16:50;15.30;;;8.95;;
76608;SDS011;65928;53.936;27.540;2023-02-28T06:19:16;14.98;;;7.43;;
76608;SDS011;65928;53.936;27.540;2023-02-28T06:21:42;15.93;;;8.65;;
76608;SDS011;65928;53.936;27.540;2023-02-28T06:24:08;13.98;;;7.72;;
76608;SDS011;65928;53.936;27.540;2023-02-28T06:26:34;13.20;;;7.60;;
76608;SDS011;65928;53.936;27.540;2023-02-28T06:28:59;11.15;;;7.53;;
76608;SDS011;65928;53.936;27.540;2023-02-28T06:31:25;11.43;;;6.35;;
76608;SDS011;65928;53.936;27.540;2023-02-28T06:33:51;16.08;;;8.18;;
76608;SDS011;65928;53.936;27.540;2023-02-28T06:36:17;12.40;;;7.22;;
76608;SDS011;65928;53.936;27.540;2023-02-28T06:38:44;13.55;;;7.60;;
76608;SDS011;65928;53.936;27.540;2023-02-28T06:41:09;13.50;;;7.72;;
76608;SDS011;65928;53.936;27.540;2023-02-28T06:43:37;11.52;;;7.13;;
76608;SDS011;65928;53.936;27.540;2023-02-28T06:46:06;16.45;;;8.98;;
76608;SDS011;65928;53.936;27.540;2023-02-28T06:48:33;15.73;;;8.02;;
76608;SDS011;65928;53.936;27.540;2023-02-28T06:51:05;13.25;;;8.13;;
76608;SDS011;65928;53.936;27.540;2023-02-28T06:53:39;13.23;;;7.45;;
76608;SDS011;65928;53.936;27.540;2023-02-28T06:56:06;10.82;;;7.45;;
76608;SDS011;65928;53.936;27.540;2023-02-28T06:58:33;11.95;;;6.43;;
76608;SDS011;65928;53.936;27.540;2023-02-28T07:00:59;11.98;;;6.80;;
76608;SDS011;65928;53.936;27.540;2023-02-28T07:03:25;12.88;;;7.38;;
76608;SDS011;65928;53.936;27.540;2023-02-28T07:05:50;13.48;;;6.75;;
76608;SDS011;65928;53.936;27.540;2023-02-28T07:08:16;12.85;;;6.28;;
76608;SDS011;65928;53.936;27.540;2023-02-28T07:10:42;14.40;;;6.57;;
76608;SDS011;65928;53.936;27.540;2023-02-28T07:13:08;14.48;;;7.63;;
76608;SDS011;65928;53.936;27.540;2023-02-28T07:15:34;13.95;;;6.78;;
76608;SDS011;65928;53.936;27.540;2023-02-28T07:18:00;13.65;;;7.07;;
76608;SDS011;65928;53.936;27.540;2023-02-28T07:20:26;14.98;;;7.88;;
76608;SDS011;65928;53.936;27.540;2023-02-28T07:22:51;12.70;;;7.07;;
76608;SDS011;65928;53.936;27.540;2023-02-28T07:25:23;13.65;;;8.00;;
76608;SDS011;65928;53.936;27.540;2023-02-28T07:27:50;10.23;;;6.80;;
76608;SDS011;65928;53.936;27.540;2023-02-28T07:30:16;14.93;;;7.25;;
76608;SDS011;65928;53.936;27.540;2023-02-28T07:32:42;12.98;;;7.35;;
76608;SDS011;65928;53.936;27.540;2023-02-28T07:35:07;13.93;;;7.22;;
76608;SDS011;65928;53.936;27.540;2023-02-28T07:37:33;15.10;;;8.60;;
76608;SDS011;65928;53.936;27.540;2023-02-28T07:40:05;12.98;;;7.43;;
76608;SDS011;65928;53.936;27.540;2023-02-28T07:42:33;11.47;;;7.13;;
76608;SDS011;65928;53.936;27.540;2023-02-28T07:45:00;15.63;;;7.93;;
76608;SDS011;65928;53.936;27.540;2023-02-28T07:47:26;12.10;;;8.18;;
76608;SDS011;65928;53.936;27.540;2023-02-28T07:49:51;13.80;;;8.23;;
76608;SDS011;65928;53.936;27.540;2023-02-28T07:52:17;14.07;;;8.27;;
76608;SDS011;65928;53.936;27.540;2023-02-28T07:54:43;13.18;;;6.97;;
76608;SDS011;65928;53.936;27.540;2023-02-28T07:57:08;12.32;;;7.13;;
76608;SDS011;65928;53.936;27.540;2023-02-28T07:59:33;12.73;;;7.78;;
76608;SDS011;65928;53.936;27.540;2023-02-28T08:01:59;13.00;;;7.28;;
76608;SDS011;65928;53.936;27.540;2023-02-28T08:04:24;13.27;;;7.25;;
76608;SDS011;65928;53.936;27.540;2023-02-28T08:06:50;13.98;;;8.10;;
76608;SDS011;65928;53.936;27.540;2023-02-28T08:09:19;12.25;;;7.60;;
76608;SDS011;65928;53.936;27.540;2023-02-28T08:11:44;12.95;;;7.55;;
76608;SDS011;65928;53.936;27.540;2023-02-28T08:14:10;14.02;;;7.82;;
76608;SDS011;65928;53.936;27.540;2023-02-28T08:16:35;13.82;;;8.15;;
76608;SDS011;65928;53.936;27.540;2023-02-28T08:19:02;10.90;;;6.68;;
76608;SDS011;65928;53.936;27.540;2023-02-28T08:21:27;11.70;;;6.93;;
76608;SDS011;65928;53.936;27.540;2023-02-28T08:23:53;11.43;;;7.03;;
76608;SDS011;65928;53.936;27.540;2023-02-28T08:26:18;13.75;;;7.13;;
76608;SDS011;65928;53.936;27.540;2023-02-28T08:28:44;10.50;;;6.78;;
76608;SDS011;65928;53.936;27.540;2023-02-28T08:31:12;12.50;;;8.38;;
76608;SDS011;65928;53.936;27.540;2023-02-28T08:33:41;10.10;;;5.35;;
76608;SDS011;65928;53.936;27.540;2023-02-28T08:36:07;10.52;;;5.40;;
76608;SDS011;65928;53.936;27.540;2023-02-28T08:38:34;12.48;;;6.40;;
76608;SDS011;65928;53.936;27.540;2023-02-28T08:41:02;12.75;;;6.60;;
76608;SDS011;65928;53.936;27.540;2023-02-28T08:43:32;10.60;;;6.30;;
76608;SDS011;65928;53.936;27.540;2023-02-28T08:45:58;8.98;;;6.00;;
76608;SDS011;65928;53.936;27.540;2023-02-28T08:48:25;11.30;;;5.85;;
76608;SDS011;65928;53.936;27.540;2023-02-28T08:50:58;8.98;;;5.88;;
76608;SDS011;65928;53.936;27.540;2023-02-28T08:53:25;11.48;;;5.68;;
76608;SDS011;65928;53.936;27.540;2023-02-28T08:55:58;8.68;;;4.50;;
76608;SDS011;65928;53.936;27.540;2023-02-28T08:58:31;13.48;;;6.93;;
76608;SDS011;65928;53.936;27.540;2023-02-28T09:00:57;8.63;;;5.00;;
76608;SDS011;65928;53.936;27.540;2023-02-28T09:03:23;10.60;;;5.38;;
76608;SDS011;65928;53.936;27.540;2023-02-28T09:05:56;9.13;;;4.65;;
76608;SDS011;65928;53.936;27.540;2023-02-28T09:08:24;8.75;;;4.45;;
76608;SDS011;65928;53.936;27.540;2023-02-28T09:10:50;9.13;;;4.78;;
76608;SDS011;65928;53.936;27.540;2023-02-28T09:13:16;11.23;;;4.40;;
76608;SDS011;65928;53.936;27.540;2023-02-28T09:15:42;7.38;;;3.65;;
76608;SDS011;65928;53.936;27.540;2023-02-28T09:18:07;7.80;;;3.92;;
76608;SDS011;65928;53.936;27.540;2023-02-28T09:20:33;8.52;;;4.38;;
76608;SDS011;65928;53.936;27.540;2023-02-28T09:22:59;6.55;;;3.63;;
76608;SDS011;65928;53.936;27.540;2023-02-28T09:25:24;5.65;;;3.72;;
76608;SDS011;65928;53.936;27.540;2023-02-28T09:27:50;11.98;;;4.80;;
76608;SDS011;65928;53.936;27.540;2023-02-28T09:30:15;10.55;;;4.38;;
76608;SDS011;65928;53.936;27.540;2023-02-28T09:32:41;6.63;;;4.88;;
76608;SDS011;65928;53.936;27.540;2023-02-28T09:35:07;8.13;;;3.67;;
76608;SDS011;65928;53.936;27.540;2023-02-28T09:37:38;7.93;;;4.68;;
76608;SDS011;65928;53.936;27.540;2023-02-28T09:40:03;8.57;;;3.70;;
76608;SDS011;65928;53.936;27.540;2023-02-28T09:42:31;8.13;;;5.05;;
76608;SDS011;65928;53.936;27.540;2023-02-28T09:44:58;9.07;;;4.72;;
76608;SDS011;65928;53.936;27.540;2023-02-28T09:47:31;10.98;;;4.28;;
76608;SDS011;65928;53.936;27.540;2023-02-28T09:50:03;7.70;;;4.53;;
76608;SDS011;65928;53.936;27.540;2023-02-28T09:52:43;7.10;;;3.92;;
76608;SDS011;65928;53.936;27.540;2023-02-28T09:55:22;7.00;;;4.00;;
76608;SDS011;65928;53.936;27.540;2023-02-28T09:57:55;8.23;;;4.10;;
76608;SDS011;65928;53.936;27.540;2023-02-28T10:00:28;6.43;;;3.95;;
76608;SDS011;65928;53.936;27.540;2023-02-28T10:03:06;8.07;;;4.28;;
76608;SDS011;65928;53.936;27.540;2023-02-28T10:05:59;6.30;;;3.45;;
76608;SDS011;65928;53.936;27.540;2023-02-28T10:08:38;6.28;;;3.20;;
76608;SDS011;65928;53.936;27.540;2023-02-28T10:11:11;6.68;;;3.83;;
76608;SDS011;65928;53.936;27.540;2023-02-28T10:13:53;6.28;;;3.58;;
76608;SDS011;65928;53.936;27.540;2023-02-28T10:16:25;4.88;;;2.72;;
76608;SDS011;65928;53.936;27.540;2023-02-28T10:19:20;6.28;;;3.10;;
76608;SDS011;65928;53.936;27.540;2023-02-28T10:29:44;6.57;;;3.47;;
76608;SDS011;65928;53.936;27.540;2023-02-28T10:32:17;4.85;;;2.60;;
76608;SDS011;65928;53.936;27.540;2023-02-28T10:35:31;5.43;;;2.65;;
76608;SDS011;65928;53.936;27.540;2023-02-28T10:37:38;5.43;;;3.15;;
76608;SDS011;65928;53.936;27.540;2023-02-28T10:40:05;4.22;;;2.30;;
76608;SDS011;65928;53.936;27.540;2023-02-28T10:42:32;5.05;;;2.65;;
76608;SDS011;65928;53.936;27.540;2023-02-28T10:45:06;5.97;;;2.97;;
76608;SDS011;65928;53.936;27.540;2023-02-28T10:47:32;5.88;;;3.95;;
76608;SDS011;65928;53.936;27.540;2023-02-28T10:50:00;7.70;;;3.85;;
76608;SDS011;65928;53.936;27.540;2023-02-28T10:52:36;6.10;;;2.80;;
76608;SDS011;65928;53.936;27.540;2023-02-28T10:55:14;8.02;;;3.08;;
76608;SDS011;65928;53.936;27.540;2023-02-28T11:00:17;6.38;;;2.80;;
76608;SDS011;65928;53.936;27.540;2023-02-28T11:02:46;5.80;;;3.22;;
76608;SDS011;65928;53.936;27.540;2023-02-28T11:10:30;5.85;;;2.88;;
76608;SDS011;65928;53.936;27.540;2023-02-28T11:12:59;7.20;;;3.20;;
76608;SDS011;65928;53.936;27.540;2023-02-28T11:15:32;6.35;;;3.83;;
76608;SDS011;65928;53.936;27.540;2023-02-28T11:20:48;6.22;;;3.58;;
76608;SDS011;65928;53.936;27.540;2023-02-28T11:23:16;6.28;;;3.70;;
76608;SDS011;65928;53.936;27.540;2023-02-28T11:25:53;5.88;;;3.20;;
76608;SDS011;65928;53.936;27.540;2023-02-28T11:28:32;5.93;;;3.65;;
76608;SDS011;65928;53.936;27.540;2023-02-28T11:33:28;7.25;;;3.53;;
76608;SDS011;65928;53.936;27.540;2023-02-28T11:35:57;6.07;;;3.00;;
76608;SDS011;65928;53.936;27.540;2023-02-28T11:38:27;7.05;;;3.75;;
76608;SDS011;65928;53.936;27.540;2023-02-28T11:43:30;7.80;;;3.83;;
76608;SDS011;65928;53.936;27.540;2023-02-28T11:46:09;7.18;;;3.55;;
76608;SDS011;65928;53.936;27.540;2023-02-28T11:48:42;5.97;;;3.50;;
76608;SDS011;65928;53.936;27.540;2023-02-28T11:54:38;5.57;;;3.30;;
76608;SDS011;65928;53.936;27.540;2023-02-28T12:05:29;7.88;;;3.70;;
76608;SDS011;65928;53.936;27.540;2023-02-28T12:22:00;6.60;;;4.10;;
76608;SDS011;65928;53.936;27.540;2023-02-28T12:27:39;7.32;;;3.50;;
76608;SDS011;65928;53.936;27.540;2023-02-28T12:32:44;6.60;;;4.18;;
76608;SDS011;65928;53.936;27.540;2023-02-28T12:35:14;7.00;;;3.58;;
76608;SDS011;65928;53.936;27.540;2023-02-28T12:40:34;6.47;;;3.15;;
76608;SDS011;65928;53.936;27.540;2023-02-28T12:43:09;6.50;;;3.22;;
76608;SDS011;65928;53.936;27.540;2023-02-28T12:45:47;7.18;;;3.38;;
76608;SDS011;65928;53.936;27.540;2023-02-28T12:48:22;5.53;;;3.75;;
76608;SDS011;65928;53.936;27.540;2023-02-28T12:50:52;9.07;;;4.22;;
76608;SDS011;65928;53.936;27.540;2023-02-28T12:58:45;6.70;;;3.83;;
76608;SDS011;65928;53.936;27.540;2023-02-28T13:09:36;7.03;;;3.67;;
76608;SDS011;65928;53.936;27.540;2023-02-28T13:12:12;5.13;;;3.03;;
76608;SDS011;65928;53.936;27.540;2023-02-28T13:14:39;4.90;;;2.70;;
76608;SDS011;65928;53.936;27.540;2023-02-28T13:24:51;6.15;;;3.50;;
76608;SDS011;65928;53.936;27.540;2023-02-28T13:29:43;4.32;;;2.72;;
76608;SDS011;65928;53.936;27.540;2023-02-28T13:32:27;7.53;;;3.33;;
76608;SDS011;65928;53.936;27.540;2023-02-28T13:39:47;7.22;;;3.63;;
76608;SDS011;65928;53.936;27.540;2023-02-28T13:47:35;4.75;;;3.13;;
76608;SDS011;65928;53.936;27.540;2023-02-28T14:01:08;5.13;;;3.08;;
76608;SDS011;65928;53.936;27.540;2023-02-28T14:06:38;6.88;;;3.00;;
76608;SDS011;65928;53.936;27.540;2023-02-28T14:11:38;3.88;;;2.40;;
76608;SDS011;65928;53.936;27.540;2023-02-28T14:14:06;5.32;;;2.78;;
76608;SDS011;65928;53.936;27.540;2023-02-28T14:16:38;4.40;;;2.65;;
76608;SDS011;65928;53.936;27.540;2023-02-28T14:19:13;5.05;;;2.38;;
76608;SDS011;65928;53.936;27.540;2023-02-28T14:39:01;4.85;;;2.10;;
76608;SDS011;65928;53.936;27.540;2023-02-28T14:41:36;5.38;;;3.60;;
76608;SDS011;65928;53.936;27.540;2023-02-28T14:44:20;4.65;;;2.05;;
76608;SDS011;65928;53.936;27.540;2023-02-28T14:46:57;4.28;;;2.33;;
76608;SDS011;65928;53.936;27.540;2023-02-28T14:49:32;5.25;;;2.45;;
76608;SDS011;65928;53.936;27.540;2023-02-28T14:52:22;4.00;;;2.40;;
76608;SDS011;65928;53.936;27.540;2023-02-28T14:55:23;5.80;;;3.35;;
76608;SDS011;65928;53.936;27.540;2023-02-28T14:58:02;4.45;;;2.75;;
76608;SDS011;65928;53.936;27.540;2023-02-28T15:00:35;3.95;;;2.03;;
76608;SDS011;65928;53.936;27.540;2023-02-28T15:03:22;5.18;;;2.45;;
76608;SDS011;65928;53.936;27.540;2023-02-28T15:05:54;5.80;;;2.70;;
76608;SDS011;65928;53.936;27.540;2023-02-28T15:08:22;4.68;;;2.53;;
76608;SDS011;65928;53.936;27.540;2023-02-28T15:13:35;4.82;;;2.90;;
76608;SDS011;65928;53.936;27.540;2023-02-28T15:16:04;6.35;;;3.17;;
76608;SDS011;65928;53.936;27.540;2023-02-28T15:18:46;6.50;;;2.75;;
76608;SDS011;65928;53.936;27.540;2023-02-28T15:21:16;4.82;;;2.33;;
76608;SDS011;65928;53.936;27.540;2023-02-28T15:23:54;6.45;;;3.25;;
76608;SDS011;65928;53.936;27.540;2023-02-28T15:26:30;5.20;;;3.42;;
76608;SDS011;65928;53.936;27.540;2023-02-28T15:29:07;5.47;;;2.67;;
76608;SDS011;65928;53.936;27.540;2023-02-28T15:31:40;5.90;;;2.55;;
76608;SDS011;65928;53.936;27.540;2023-02-28T15:34:52;7.10;;;3.38;;
76608;SDS011;65928;53.936;27.540;2023-02-28T15:37:00;5.78;;;2.88;;
76608;SDS011;65928;53.936;27.540;2023-02-28T15:39:27;5.03;;;3.10;;
76608;SDS011;65928;53.936;27.540;2023-02-28T15:42:16;9.02;;;3.20;;
76608;SDS011;65928;53.936;27.540;2023-02-28T15:44:44;6.70;;;3.47;;
76608;SDS011;65928;53.936;27.540;2023-02-28T15:50:10;7.18;;;3.35;;
76608;SDS011;65928;53.936;27.540;2023-02-28T15:52:44;6.65;;;3.15;;
76608;SDS011;65928;53.936;27.540;2023-02-28T15:55:24;5.28;;;2.97;;
76608;SDS011;65928;53.936;27.540;2023-02-28T15:57:53;6.80;;;2.65;;
76608;SDS011;65928;53.936;27.540;2023-02-28T16:00:24;6.30;;;3.65;;
76608;SDS011;65928;53.936;27.540;2023-02-28T16:02:51;6.85;;;3.42;;
76608;SDS011;65928;53.936;27.540;2023-02-28T16:07:46;6.60;;;4.40;;
76608;SDS011;65928;53.936;27.540;2023-02-28T16:10:14;6.20;;;3.22;;
76608;SDS011;65928;53.936;27.540;2023-02-28T16:12:39;6.97;;;3.70;;
76608;SDS011;65928;53.936;27.540;2023-02-28T16:15:07;5.50;;;3.33;;
76608;SDS011;65928;53.936;27.540;2023-02-28T16:17:42;5.35;;;2.80;;
76608;SDS011;65928;53.936;27.540;2023-02-28T16:20:24;5.43;;;3.53;;
76608;SDS011;65928;53.936;27.540;2023-02-28T16:22:53;6.75;;;3.40;;
76608;SDS011;65928;53.936;27.540;2023-02-28T16:25:21;6.20;;;2.92;;
76608;SDS011;65928;53.936;27.540;2023-02-28T16:27:52;7.03;;;3.28;;
76608;SDS011;65928;53.936;27.540;2023-02-28T16:30:20;8.50;;;4.40;;
76608;SDS011;65928;53.936;27.540;2023-02-28T16:32:49;6.97;;;3.78;;
76608;SDS011;65928;53.936;27.540;2023-02-28T16:35:16;11.30;;;4.28;;
76608;SDS011;65928;53.936;27.540;2023-02-28T16:37:43;7.82;;;3.70;;
76608;SDS011;65928;53.936;27.540;2023-02-28T16:40:13;6.13;;;3.55;;
76608;SDS011;65928;53.936;27.540;2023-02-28T16:42:43;7.70;;;3.53;;
76608;SDS011;65928;53.936;27.540;2023-02-28T16:45:20;6.47;;;3.20;;
76608;SDS011;65928;53.936;27.540;2023-02-28T16:47:48;5.47;;;3.10;;
76608;SDS011;65928;53.936;27.540;2023-02-28T16:50:18;7.95;;;3.40;;
76608;SDS011;65928;53.936;27.540;2023-02-28T16:52:45;6.50;;;3.50;;
76608;SDS011;65928;53.936;27.540;2023-02-28T16:55:12;7.22;;;3.40;;
76608;SDS011;65928;53.936;27.540;2023-02-28T16:57:38;5.43;;;2.85;;
76608;SDS011;65928;53.936;27.540;2023-02-28T17:00:05;7.30;;;3.30;;
76608;SDS011;65928;53.936;27.540;2023-02-28T17:02:33;6.70;;;3.20;;
76608;SDS011;65928;53.936;27.540;2023-02-28T17:04:59;6.63;;;2.72;;
76608;SDS011;65928;53.936;27.540;2023-02-28T17:07:25;6.45;;;2.95;;
76608;SDS011;65928;53.936;27.540;2023-02-28T17:09:51;5.03;;;2.60;;
76608;SDS011;65928;53.936;27.540;2023-02-28T17:12:17;5.25;;;3.15;;
76608;SDS011;65928;53.936;27.540;2023-02-28T17:14:42;5.55;;;2.63;;
76608;SDS011;65928;53.936;27.540;2023-02-28T17:17:09;4.95;;;2.50;;
76608;SDS011;65928;53.936;27.540;2023-02-28T17:19:42;4.35;;;2.63;;
76608;SDS011;65928;53.936;27.540;2023-02-28T17:22:08;7.65;;;3.10;;
76608;SDS011;65928;53.936;27.540;2023-02-28T17:24:35;6.13;;;2.85;;
76608;SDS011;65928;53.936;27.540;2023-02-28T17:27:00;5.45;;;2.95;;
76608;SDS011;65928;53.936;27.540;2023-02-28T17:29:26;7.15;;;2.95;;
76608;SDS011;65928;53.936;27.540;2023-02-28T17:31:52;6.05;;;2.72;;
76608;SDS011;65928;53.936;27.540;2023-02-28T17:34:18;5.03;;;2.80;;
76608;SDS011;65928;53.936;27.540;2023-02-28T17:36:48;4.75;;;2.65;;
76608;SDS011;65928;53.936;27.540;2023-02-28T17:39:15;5.60;;;2.85;;
76608;SDS011;65928;53.936;27.540;2023-02-28T17:41:48;5.32;;;2.78;;